Time;durP1;ratioP1;P1;durP2;ratioP2;P2;SDS_P1;SDS_P2;PMS_P1;PMS_P2;Temp;Humidity;BMP_temperature;BMP_pressure;BME280_temperature;BME280_humidity;BME280_pressure;Samples;Min_cycle;Max_cycle;Signal;HPM_P1;HPM_P2
2024/02/24 00:01:25;;;;;;;9.82;4.30;;;10.30;99.90;;;;;;5085939;28;20051;-78
2024/02/24 00:03:54;;;;;;;6.28;3.35;;;10.30;99.90;;;;;;5102279;27;20048;-78
2024/02/24 00:06:23;;;;;;;10.35;5.22;;;10.30;99.90;;;;;;5085534;28;20052;-79
2024/02/24 00:08:51;;;;;;;12.27;4.68;;;10.30;99.90;;;;;;5091152;28;20123;-79
2024/02/24 00:11:19;;;;;;;9.43;4.38;;;10.30;99.90;;;;;;5103767;28;20459;-79
2024/02/24 00:13:48;;;;;;;8.20;4.40;;;10.30;99.90;;;;;;5081904;28;20056;-83
2024/02/24 00:16:16;;;;;;;9.10;3.80;;;10.30;99.90;;;;;;5099691;28;20040;-79
2024/02/24 00:18:46;;;;;;;9.15;4.43;;;10.30;99.90;;;;;;5104206;27;20623;-77
2024/02/24 00:21:15;;;;;;;8.98;4.25;;;10.30;99.90;;;;;;5085503;28;20055;-81
2024/02/24 00:23:43;;;;;;;7.47;3.22;;;10.30;99.90;;;;;;5103230;27;20302;-80
2024/02/24 00:26:12;;;;;;;9.40;4.40;;;10.30;99.90;;;;;;5107615;27;20059;-78
2024/02/24 00:28:40;;;;;;;8.65;3.83;;;10.40;99.90;;;;;;5102119;28;20051;-80
2024/02/24 00:31:08;;;;;;;12.07;4.97;;;10.40;99.90;;;;;;5090216;28;20056;-81
2024/02/24 00:33:38;;;;;;;9.40;4.32;;;10.40;99.90;;;;;;5090155;28;20093;-79
2024/02/24 00:36:10;;;;;;;7.15;3.75;;;10.40;99.90;;;;;;5082706;28;20129;-81
2024/02/24 00:38:38;;;;;;;8.50;3.58;;;10.40;99.90;;;;;;5100639;28;20139;-79
2024/02/24 00:41:07;;;;;;;8.52;3.90;;;10.40;99.90;;;;;;5083262;28;20036;-80
2024/02/24 00:43:35;;;;;;;8.63;3.60;;;10.40;99.90;;;;;;5085725;28;20059;-79
2024/02/24 00:46:05;;;;;;;9.13;4.15;;;10.50;99.90;;;;;;5078169;28;24392;-78
2024/02/24 00:48:33;;;;;;;9.27;3.85;;;10.50;99.90;;;;;;5088511;28;20048;-81
2024/02/24 00:51:02;;;;;;;7.65;3.55;;;10.50;99.90;;;;;;5090851;27;20059;-80
2024/02/24 00:53:32;;;;;;;7.22;3.50;;;10.50;99.90;;;;;;5072516;28;20052;-78
2024/02/24 00:56:00;;;;;;;10.10;4.60;;;10.60;99.90;;;;;;5073890;28;20047;-82
2024/02/24 00:58:29;;;;;;;7.07;3.38;;;10.60;99.90;;;;;;5072476;28;20036;-76
2024/02/24 01:00:57;;;;;;;7.30;2.53;;;10.60;99.90;;;;;;5093142;28;20097;-77
2024/02/24 01:03:26;;;;;;;7.03;3.53;;;10.50;99.90;;;;;;5090001;28;20040;-78
2024/02/24 01:05:54;;;;;;;9.18;4.05;;;10.50;99.90;;;;;;5088118;28;20419;-80
2024/02/24 01:08:22;;;;;;;20.35;3.60;;;10.50;99.90;;;;;;5082749;28;20094;-78
2024/02/24 01:10:52;;;;;;;9.00;3.45;;;10.40;99.90;;;;;;5084011;28;20510;-80
2024/02/24 01:13:21;;;;;;;8.63;3.65;;;10.50;99.90;;;;;;5103209;27;20040;-79
2024/02/24 01:15:50;;;;;;;7.78;3.05;;;10.50;99.90;;;;;;5081069;28;20406;-79
2024/02/24 01:18:20;;;;;;;8.90;3.95;;;10.50;99.90;;;;;;5084518;28;20076;-76
2024/02/24 01:20:49;;;;;;;7.88;3.30;;;10.50;99.90;;;;;;5085217;28;20044;-79
2024/02/24 01:23:17;;;;;;;6.70;2.85;;;10.50;99.90;;;;;;5102557;27;20061;-76
2024/02/24 01:25:46;;;;;;;6.45;3.30;;;10.50;99.90;;;;;;5089507;28;20047;-76
2024/02/24 01:28:16;;;;;;;7.53;3.45;;;10.50;99.90;;;;;;5089515;28;20036;-76
2024/02/24 01:30:44;;;;;;;7.57;3.75;;;10.50;99.90;;;;;;5085243;28;20040;-82
2024/02/24 01:33:12;;;;;;;13.45;3.13;;;10.50;99.90;;;;;;5101607;27;20032;-76
2024/02/24 01:35:41;;;;;;;7.25;3.10;;;10.40;99.90;;;;;;5096189;27;20045;-81
2024/02/24 01:38:10;;;;;;;7.00;3.50;;;10.40;99.90;;;;;;5082346;28;20661;-79
2024/02/24 01:40:38;;;;;;;6.65;2.25;;;10.50;99.90;;;;;;5095167;28;20625;-84
2024/02/24 01:43:27;;;;;;;8.30;3.17;;;10.50;99.90;;;;;;5084146;28;20041;-81
2024/02/24 01:45:56;;;;;;;5.90;3.17;;;10.50;99.90;;;;;;5080872;28;20102;-78
2024/02/24 01:48:25;;;;;;;6.55;3.25;;;10.50;99.90;;;;;;5085248;28;20053;-81
2024/02/24 01:50:54;;;;;;;7.15;3.20;;;10.50;99.90;;;;;;5092852;28;20871;-79
2024/02/24 01:53:23;;;;;;;5.90;2.58;;;10.50;99.90;;;;;;5073472;28;20521;-80
2024/02/24 01:55:52;;;;;;;7.63;2.78;;;10.50;99.90;;;;;;5080530;28;20044;-82
2024/02/24 01:58:22;;;;;;;7.10;2.97;;;10.50;99.90;;;;;;5085107;28;20093;-81
2024/02/24 02:00:52;;;;;;;9.13;2.97;;;10.50;99.90;;;;;;5099999;27;20048;-77
2024/02/24 02:03:21;;;;;;;7.43;3.03;;;10.50;99.90;;;;;;5099328;27;20166;-82
2024/02/24 02:05:52;;;;;;;7.20;2.63;;;10.50;99.90;;;;;;5083943;28;20144;-82
2024/02/24 02:08:20;;;;;;;6.53;2.38;;;10.50;99.90;;;;;;5103996;28;20051;-76
2024/02/24 02:10:52;;;;;;;7.07;2.75;;;10.50;99.90;;;;;;5086074;28;20040;-80
2024/02/24 02:13:21;;;;;;;6.88;3.05;;;10.50;99.90;;;;;;5104082;27;20503;-78
2024/02/24 02:15:53;;;;;;;4.70;2.58;;;10.50;99.90;;;;;;5080760;28;20050;-76
2024/02/24 02:18:22;;;;;;;5.50;2.53;;;10.50;99.90;;;;;;5080695;28;20095;-79
2024/02/24 02:20:52;;;;;;;7.13;2.72;;;10.50;99.90;;;;;;5074642;28;20037;-77
2024/02/24 02:23:22;;;;;;;6.70;2.10;;;10.50;99.90;;;;;;5094165;28;20083;-81
2024/02/24 02:25:52;;;;;;;6.03;2.17;;;10.50;99.90;;;;;;5080306;28;20052;-82
2024/02/24 02:28:20;;;;;;;4.70;1.83;;;10.60;99.90;;;;;;5086173;28;20404;-81
2024/02/24 02:30:49;;;;;;;5.57;2.40;;;10.60;99.90;;;;;;5084578;28;20407;-78
2024/02/24 02:33:17;;;;;;;4.72;1.88;;;10.50;99.90;;;;;;5080963;28;20041;-78
2024/02/24 02:35:46;;;;;;;4.35;1.70;;;10.60;99.90;;;;;;5083994;28;20457;-80
2024/02/24 02:38:15;;;;;;;4.90;2.42;;;10.60;99.90;;;;;;5099464;28;20048;-81
2024/02/24 02:40:45;;;;;;;5.53;1.40;;;10.60;99.90;;;;;;5083847;28;20475;-79
2024/02/24 02:43:13;;;;;;;4.82;1.92;;;10.60;99.90;;;;;;5084752;28;20048;-78
2024/02/24 02:45:42;;;;;;;4.72;1.85;;;10.60;99.90;;;;;;5079564;28;20452;-78
2024/02/24 02:48:11;;;;;;;4.60;1.60;;;10.60;99.90;;;;;;5085956;28;20557;-81
2024/02/24 02:50:39;;;;;;;5.72;1.67;;;10.60;99.90;;;;;;5080707;28;20028;-78
2024/02/24 02:53:08;;;;;;;4.28;1.38;;;10.60;99.90;;;;;;5101641;28;20040;-80
2024/02/24 02:55:36;;;;;;;2.47;0.90;;;10.60;99.90;;;;;;5097866;28;20514;-84
2024/02/24 02:58:07;;;;;;;2.42;0.75;;;10.80;99.90;;;;;;5083573;28;20044;-80
2024/02/24 03:00:36;;;;;;;3.97;1.48;;;10.80;99.90;;;;;;5099631;28;20058;-79
2024/02/24 03:03:05;;;;;;;2.25;1.10;;;10.80;99.90;;;;;;5088930;28;20081;-83
2024/02/24 03:05:33;;;;;;;4.95;1.35;;;10.80;99.90;;;;;;5089324;28;20040;-78
2024/02/24 03:08:02;;;;;;;3.15;1.20;;;10.80;99.90;;;;;;5086759;28;20035;-81
2024/02/24 03:10:30;;;;;;;3.00;1.05;;;10.70;99.90;;;;;;5093486;28;20088;-79
2024/02/24 03:12:59;;;;;;;3.55;1.30;;;10.70;99.90;;;;;;5081293;28;20036;-82
2024/02/24 03:15:29;;;;;;;2.28;1.05;;;10.70;99.90;;;;;;5093662;28;20043;-76
2024/02/24 03:17:57;;;;;;;3.15;1.02;;;10.70;99.90;;;;;;5087812;28;20072;-79
2024/02/24 03:20:26;;;;;;;4.18;1.05;;;10.70;99.90;;;;;;5086217;28;20434;-77
2024/02/24 03:22:55;;;;;;;2.63;0.88;;;10.60;99.90;;;;;;5101681;28;20045;-80
2024/02/24 03:25:26;;;;;;;3.60;0.95;;;10.80;99.90;;;;;;5090548;28;20113;-79
2024/02/24 03:27:55;;;;;;;4.60;1.45;;;10.80;99.90;;;;;;5087220;28;20052;-83
2024/02/24 03:30:24;;;;;;;7.18;1.40;;;10.80;99.90;;;;;;5089688;28;20052;-79
2024/02/24 03:32:53;;;;;;;4.00;1.23;;;10.80;99.90;;;;;;5091953;28;20044;-84
2024/02/24 03:35:22;;;;;;;2.85;1.00;;;10.80;99.90;;;;;;5088533;28;20114;-80
2024/02/24 03:37:51;;;;;;;3.92;1.70;;;10.70;99.90;;;;;;5103242;28;20312;-80
2024/02/24 03:40:20;;;;;;;3.97;1.45;;;10.80;99.90;;;;;;5101725;28;20058;-79
2024/02/24 03:42:48;;;;;;;4.80;1.70;;;10.70;99.90;;;;;;5091084;28;20040;-79
2024/02/24 03:45:17;;;;;;;12.55;1.50;;;10.60;99.90;;;;;;5103787;28;20055;-80
2024/02/24 03:47:45;;;;;;;4.38;1.65;;;10.60;99.90;;;;;;5094069;28;20578;-85
2024/02/24 03:50:15;;;;;;;3.83;1.35;;;10.50;99.90;;;;;;5099521;28;20045;-79
2024/02/24 03:52:43;;;;;;;2.65;1.27;;;10.40;99.90;;;;;;5086398;28;20040;-83
2024/02/24 03:55:11;;;;;;;4.05;1.60;;;10.40;99.90;;;;;;5087977;28;20075;-83
2024/02/24 03:57:41;;;;;;;3.92;2.00;;;10.40;99.90;;;;;;5083484;28;20041;-80
2024/02/24 04:00:11;;;;;;;4.10;1.70;;;10.30;99.90;;;;;;5099192;27;20059;-83
2024/02/24 04:02:42;;;;;;;3.78;1.42;;;10.20;99.90;;;;;;5084666;28;20044;-82
2024/02/24 04:05:11;;;;;;;2.58;1.30;;;10.20;99.90;;;;;;5088681;28;20289;-80
2024/02/24 04:07:41;;;;;;;4.47;1.45;;;10.10;99.90;;;;;;5091538;28;20173;-80
2024/02/24 04:10:11;;;;;;;3.65;1.38;;;10.00;99.90;;;;;;5087556;28;20565;-80
2024/02/24 04:12:39;;;;;;;2.70;1.13;;;10.00;99.90;;;;;;5090576;28;20048;-82
2024/02/24 04:15:08;;;;;;;4.72;1.40;;;10.00;99.90;;;;;;5091539;28;20144;-80
2024/02/24 04:17:36;;;;;;;7.90;2.28;;;9.90;99.90;;;;;;5108169;27;20484;-83
2024/02/24 04:20:05;;;;;;;6.60;3.67;;;9.90;99.90;;;;;;5086281;28;20058;-78
2024/02/24 04:22:34;;;;;;;6.15;3.10;;;9.90;99.90;;;;;;5104155;27;20059;-81
2024/02/24 04:25:04;;;;;;;23.70;11.25;;;9.90;99.90;;;;;;5087798;28;20090;-78
2024/02/24 04:27:32;;;;;;;11.55;5.72;;;9.90;99.90;;;;;;5087342;28;20144;-80
2024/02/24 04:30:02;;;;;;;8.55;6.18;;;9.80;99.90;;;;;;5096692;28;20052;-81
2024/02/24 04:32:31;;;;;;;7.10;4.47;;;9.80;99.90;;;;;;5087562;28;20148;-85
2024/02/24 04:34:59;;;;;;;9.38;3.67;;;9.80;99.90;;;;;;5089167;28;20176;-83
2024/02/24 04:37:28;;;;;;;4.20;1.95;;;9.80;99.90;;;;;;5090605;28;20040;-83
2024/02/24 04:39:56;;;;;;;3.40;1.80;;;9.70;99.90;;;;;;5088736;28;20130;-82
2024/02/24 04:42:27;;;;;;;3.45;1.73;;;9.70;99.90;;;;;;5087913;28;20410;-82
2024/02/24 04:44:55;;;;;;;4.32;1.65;;;9.80;99.90;;;;;;5101558;28;20056;-82
2024/02/24 04:47:25;;;;;;;4.97;2.17;;;9.70;99.90;;;;;;5095961;27;20464;-80
2024/02/24 04:49:54;;;;;;;4.28;1.92;;;9.80;99.90;;;;;;5078038;28;20097;-79
2024/02/24 04:52:23;;;;;;;4.97;1.15;;;9.70;99.90;;;;;;5101694;27;20055;-79
2024/02/24 04:54:51;;;;;;;3.55;1.52;;;9.70;99.90;;;;;;5102342;28;20046;-80
2024/02/24 04:57:20;;;;;;;5.82;1.80;;;9.80;99.90;;;;;;5090449;28;20515;-81
2024/02/24 04:59:50;;;;;;;4.57;1.77;;;9.80;99.90;;;;;;5101712;28;20052;-78
2024/02/24 05:02:18;;;;;;;5.32;2.03;;;9.70;99.90;;;;;;5084042;28;20138;-82
2024/02/24 05:04:47;;;;;;;2.63;1.35;;;9.70;99.90;;;;;;5097990;28;20407;-81
2024/02/24 05:07:15;;;;;;;7.95;2.17;;;9.70;99.90;;;;;;5084343;28;20133;-81
2024/02/24 05:09:43;;;;;;;5.10;1.80;;;9.70;99.90;;;;;;5087082;28;20373;-82
2024/02/24 05:12:12;;;;;;;6.05;2.83;;;9.70;99.90;;;;;;5085914;28;20055;-82
2024/02/24 05:14:40;;;;;;;5.22;1.80;;;9.70;99.90;;;;;;5091106;28;20036;-82
2024/02/24 05:17:12;;;;;;;3.78;1.65;;;9.70;99.90;;;;;;5082045;28;20062;-81
2024/02/24 05:19:40;;;;;;;5.97;2.13;;;9.70;99.90;;;;;;5093481;28;20441;-79
2024/02/24 05:22:09;;;;;;;5.15;1.98;;;9.70;99.90;;;;;;5083471;28;20503;-79
2024/02/24 05:24:38;;;;;;;7.22;2.75;;;9.60;99.90;;;;;;5101717;28;20036;-79
2024/02/24 05:27:07;;;;;;;3.92;1.90;;;9.60;99.90;;;;;;5087268;28;20071;-78
2024/02/24 05:29:35;;;;;;;5.38;1.70;;;9.60;99.90;;;;;;5091324;28;20055;-78
2024/02/24 05:32:04;;;;;;;4.50;1.77;;;9.60;99.90;;;;;;5085876;28;20406;-80
2024/02/24 05:34:34;;;;;;;3.88;1.58;;;9.60;99.90;;;;;;5083138;28;20050;-79
2024/02/24 05:37:03;;;;;;;3.17;1.48;;;9.60;99.90;;;;;;5087799;28;20048;-84
2024/02/24 05:39:31;;;;;;;6.10;1.50;;;9.70;99.90;;;;;;5086724;28;20041;-82
2024/02/24 05:42:00;;;;;;;3.97;1.63;;;9.70;99.90;;;;;;5098104;28;20125;-81
2024/02/24 05:44:28;;;;;;;7.95;2.50;;;9.60;99.90;;;;;;5085373;28;20059;-80
2024/02/24 05:46:57;;;;;;;4.85;1.90;;;9.80;99.90;;;;;;5089256;28;20071;-78
2024/02/24 05:49:25;;;;;;;6.28;1.92;;;9.80;99.90;;;;;;5089562;28;20052;-82
2024/02/24 05:51:55;;;;;;;4.00;1.77;;;9.70;99.90;;;;;;5088072;28;20040;-83
2024/02/24 05:54:24;;;;;;;5.95;1.67;;;9.70;99.90;;;;;;5085229;28;20056;-80
2024/02/24 05:56:52;;;;;;;3.60;1.95;;;9.80;99.90;;;;;;5086319;28;20040;-79
2024/02/24 05:59:21;;;;;;;3.80;1.60;;;9.70;99.90;;;;;;5104139;27;20561;-78
2024/02/24 06:01:49;;;;;;;7.43;2.30;;;9.70;99.90;;;;;;5086579;28;20036;-78
2024/02/24 06:04:18;;;;;;;4.03;1.65;;;9.60;99.90;;;;;;5080139;28;20461;-83
2024/02/24 06:06:48;;;;;;;3.70;1.42;;;9.70;99.90;;;;;;5088935;28;20052;-80
2024/02/24 06:09:18;;;;;;;5.35;2.00;;;9.60;99.90;;;;;;5085211;28;20098;-80
2024/02/24 06:11:47;;;;;;;4.05;1.42;;;9.70;99.90;;;;;;5084978;28;20040;-78
2024/02/24 06:14:15;;;;;;;6.22;1.70;;;9.70;99.90;;;;;;5084019;28;20044;-81
2024/02/24 06:16:44;;;;;;;5.13;1.83;;;9.60;99.90;;;;;;5099682;27;20040;-83
2024/02/24 06:19:12;;;;;;;5.85;1.98;;;9.60;99.90;;;;;;5091360;28;20048;-84
2024/02/24 06:21:41;;;;;;;4.40;1.77;;;9.60;99.90;;;;;;5087971;28;20041;-84
2024/02/24 06:24:09;;;;;;;3.22;1.63;;;9.60;99.90;;;;;;5080993;28;20426;-82
2024/02/24 06:26:39;;;;;;;6.35;1.48;;;9.60;99.90;;;;;;5099567;28;20076;-84
2024/02/24 06:29:08;;;;;;;3.90;1.63;;;9.60;99.90;;;;;;5085065;28;20135;-80
2024/02/24 06:31:36;;;;;;;5.22;1.95;;;9.50;99.90;;;;;;5086737;28;20085;-83
2024/02/24 06:34:05;;;;;;;4.65;1.48;;;9.50;99.90;;;;;;5080970;28;20072;-83
2024/02/24 06:36:36;;;;;;;4.70;1.48;;;9.50;99.90;;;;;;5104960;27;20047;-82
2024/02/24 06:39:05;;;;;;;5.03;1.73;;;9.50;99.90;;;;;;5102968;28;20043;-84
2024/02/24 06:41:33;;;;;;;3.33;1.45;;;9.50;99.90;;;;;;5091837;28;20043;-84
2024/02/24 06:44:03;;;;;;;7.68;2.20;;;9.50;99.90;;;;;;5101983;28;20036;-83
2024/02/24 06:46:31;;;;;;;5.15;1.27;;;9.50;99.90;;;;;;5084102;28;20068;-80
2024/02/24 06:49:00;;;;;;;5.47;1.42;;;9.50;99.90;;;;;;5100572;28;20072;-83
2024/02/24 06:51:28;;;;;;;2.92;1.35;;;9.60;99.90;;;;;;5087054;28;20094;-78
2024/02/24 06:53:57;;;;;;;5.75;1.83;;;9.60;99.90;;;;;;5091791;28;20051;-80
2024/02/24 06:56:25;;;;;;;5.53;1.65;;;9.60;99.90;;;;;;5085050;28;20040;-83
2024/02/24 06:58:54;;;;;;;5.60;1.65;;;9.60;99.90;;;;;;5088275;28;20072;-83
2024/02/24 07:01:24;;;;;;;5.60;2.45;;;9.60;99.90;;;;;;5081981;28;20036;-81
2024/02/24 07:03:52;;;;;;;3.45;1.60;;;9.60;99.90;;;;;;5084161;28;20051;-83
2024/02/24 07:06:21;;;;;;;3.72;1.70;;;9.60;99.90;;;;;;5098389;28;20078;-81
2024/02/24 07:08:49;;;;;;;4.68;1.42;;;9.60;99.90;;;;;;5095322;28;20040;-82
2024/02/24 07:11:18;;;;;;;6.95;1.95;;;9.70;99.90;;;;;;5087770;28;20121;-84
2024/02/24 07:13:47;;;;;;;7.85;3.47;;;9.70;99.90;;;;;;5087869;28;20044;-83
2024/02/24 07:16:16;;;;;;;11.88;4.78;;;9.70;99.90;;;;;;5085634;28;20464;-81
2024/02/24 07:18:45;;;;;;;6.35;2.85;;;9.70;99.90;;;;;;5083784;28;20093;-79
2024/02/24 07:21:14;;;;;;;6.60;2.33;;;9.70;99.90;;;;;;5078888;28;20093;-80
2024/02/24 07:23:43;;;;;;;5.97;2.55;;;9.80;99.90;;;;;;5085327;28;20122;-80
2024/02/24 07:26:11;;;;;;;7.90;3.83;;;9.80;99.90;;;;;;5085984;28;20117;-81
2024/02/24 07:28:41;;;;;;;9.27;3.78;;;9.80;99.90;;;;;;5084389;28;20105;-84
2024/02/24 07:31:09;;;;;;;13.23;4.20;;;9.90;99.90;;;;;;5083254;28;20044;-83
2024/02/24 07:33:38;;;;;;;4.22;1.77;;;9.90;99.90;;;;;;5083117;28;20184;-82
2024/02/24 07:36:08;;;;;;;4.97;2.22;;;9.90;99.90;;;;;;5099957;28;20059;-83
2024/02/24 07:38:41;;;;;;;6.88;2.10;;;9.90;99.90;;;;;;5093391;28;20044;-82
2024/02/24 07:41:10;;;;;;;4.65;2.00;;;9.90;99.90;;;;;;5082784;28;20051;-83
2024/02/24 07:43:38;;;;;;;4.05;1.75;;;10.00;99.90;;;;;;5084683;28;20062;-85
2024/02/24 07:46:06;;;;;;;4.15;1.80;;;10.00;99.90;;;;;;5088014;28;20064;-86
2024/02/24 07:48:35;;;;;;;6.18;2.05;;;10.00;99.90;;;;;;5088631;28;20092;-85
2024/02/24 07:51:04;;;;;;;6.25;2.78;;;10.10;99.90;;;;;;5080683;28;20418;-84
2024/02/24 07:53:34;;;;;;;6.95;3.75;;;10.10;99.90;;;;;;5080460;28;20036;-84
2024/02/24 07:56:03;;;;;;;4.55;2.47;;;10.20;99.90;;;;;;5088268;28;20406;-85
2024/02/24 07:58:31;;;;;;;6.65;2.65;;;10.20;99.90;;;;;;5086701;28;20051;-79
2024/02/24 08:01:00;;;;;;;5.10;2.30;;;10.30;99.90;;;;;;5090968;28;20048;-81
2024/02/24 08:03:28;;;;;;;5.32;1.50;;;10.40;99.90;;;;;;5088268;28;20036;-80
2024/02/24 08:05:56;;;;;;;4.68;1.48;;;10.40;99.90;;;;;;5087588;28;20052;-83
2024/02/24 08:08:25;;;;;;;4.32;1.40;;;10.50;99.90;;;;;;5111799;27;20047;-82
2024/02/24 08:10:55;;;;;;;6.88;1.45;;;10.50;99.90;;;;;;5088903;28;20048;-80
2024/02/24 08:13:25;;;;;;;3.63;1.87;;;10.50;99.90;;;;;;5100191;27;20041;-82
2024/02/24 08:15:54;;;;;;;3.78;1.55;;;10.50;99.90;;;;;;5091774;28;20396;-79
2024/02/24 08:18:22;;;;;;;5.70;2.13;;;10.60;99.90;;;;;;5091840;28;20075;-83
2024/02/24 08:20:52;;;;;;;4.80;1.85;;;10.60;99.90;;;;;;5085399;28;20075;-80
2024/02/24 08:23:21;;;;;;;5.35;1.95;;;10.70;99.90;;;;;;5088363;28;20796;-81
2024/02/24 08:25:49;;;;;;;5.45;2.40;;;10.80;99.90;;;;;;5093281;28;20040;-79
2024/02/24 08:28:20;;;;;;;6.97;2.63;;;10.80;99.90;;;;;;5085821;28;20575;-82
2024/02/24 08:30:48;;;;;;;8.10;4.22;;;10.90;99.90;;;;;;5100738;27;20510;-79
2024/02/24 08:33:18;;;;;;;6.30;2.20;;;11.10;99.90;;;;;;5091066;28;20032;-79
2024/02/24 08:35:46;;;;;;;3.72;1.75;;;11.10;99.90;;;;;;5102387;28;20048;-82
2024/02/24 08:38:15;;;;;;;11.38;6.20;;;11.20;99.90;;;;;;5087207;28;20097;-83
2024/02/24 08:40:43;;;;;;;7.40;3.53;;;11.30;99.90;;;;;;5098846;27;20094;-84
2024/02/24 08:43:12;;;;;;;4.63;1.88;;;11.40;99.90;;;;;;5096005;28;20040;-80
2024/02/24 08:45:42;;;;;;;3.63;1.60;;;11.40;99.90;;;;;;5085747;28;20385;-80
2024/02/24 08:48:13;;;;;;;3.85;2.15;;;11.40;99.90;;;;;;5098086;27;20098;-79
2024/02/24 08:50:41;;;;;;;6.75;3.58;;;11.50;99.90;;;;;;5101959;28;20414;-83
2024/02/24 08:53:10;;;;;;;3.08;1.42;;;11.50;99.90;;;;;;5084939;28;20033;-83
2024/02/24 08:55:38;;;;;;;5.88;2.00;;;11.50;99.90;;;;;;5087728;28;20051;-83
2024/02/24 08:58:07;;;;;;;3.55;1.27;;;11.50;99.90;;;;;;5099617;28;20051;-81
2024/02/24 09:00:35;;;;;;;6.85;3.38;;;11.60;99.90;;;;;;5084635;28;20123;-83
2024/02/24 09:03:05;;;;;;;4.93;1.90;;;11.70;99.90;;;;;;5100385;28;20504;-83
2024/02/24 09:05:34;;;;;;;3.65;1.67;;;11.70;99.90;;;;;;5096225;28;20628;-83
2024/02/24 09:08:03;;;;;;;6.32;2.15;;;11.70;99.90;;;;;;5105474;27;20081;-81
2024/02/24 09:10:31;;;;;;;3.45;1.98;;;11.80;99.90;;;;;;5104036;28;20040;-82
2024/02/24 09:12:59;;;;;;;2.83;1.00;;;11.90;99.90;;;;;;5089610;28;20136;-80
2024/02/24 09:15:28;;;;;;;3.92;1.70;;;11.90;99.90;;;;;;5084393;28;20391;-83
2024/02/24 09:17:59;;;;;;;2.22;0.82;;;12.00;99.90;;;;;;5085830;28;20078;-83
2024/02/24 09:20:29;;;;;;;3.95;0.80;;;12.10;99.90;;;;;;5081952;28;20070;-81
2024/02/24 09:22:58;;;;;;;1.73;0.70;;;12.20;99.90;;;;;;5083369;28;20577;-82
2024/02/24 09:25:26;;;;;;;4.10;1.33;;;12.20;99.90;;;;;;5087064;28;20072;-83
2024/02/24 09:27:54;;;;;;;2.13;0.63;;;12.30;99.90;;;;;;5084398;28;20072;-80
2024/02/24 09:30:23;;;;;;;3.42;0.60;;;12.40;99.90;;;;;;5082008;28;20059;-81
2024/02/24 09:32:53;;;;;;;2.67;1.30;;;12.40;99.90;;;;;;5101213;28;20036;-80
2024/02/24 09:35:23;;;;;;;4.72;1.48;;;12.40;99.90;;;;;;5086607;28;20102;-82
2024/02/24 09:37:52;;;;;;;2.97;0.73;;;12.40;99.90;;;;;;5087179;28;20564;-83
2024/02/24 09:40:21;;;;;;;1.38;0.80;;;12.40;99.90;;;;;;5085759;28;20074;-84
2024/02/24 09:42:50;;;;;;;0.73;0.30;;;12.30;99.90;;;;;;5083154;28;20055;-82
2024/02/24 09:45:22;;;;;;;2.13;0.47;;;12.30;99.90;;;;;;5107320;27;20131;-81
2024/02/24 09:47:50;;;;;;;2.83;0.38;;;12.40;99.90;;;;;;5083057;28;20052;-81
2024/02/24 09:50:19;;;;;;;2.50;0.30;;;12.40;99.90;;;;;;5085148;28;20051;-82
2024/02/24 09:52:47;;;;;;;1.65;0.30;;;12.40;99.90;;;;;;5101359;27;20044;-80
2024/02/24 09:55:17;;;;;;;1.67;0.30;;;12.40;99.90;;;;;;5086978;28;20134;-81
2024/02/24 09:57:46;;;;;;;2.45;0.40;;;12.60;99.90;;;;;;5088237;28;20122;-82
2024/02/24 10:00:15;;;;;;;3.03;0.30;;;12.70;99.90;;;;;;5083773;28;20079;-79
2024/02/24 10:02:44;;;;;;;2.20;0.30;;;12.70;99.90;;;;;;5086765;28;20134;-80
2024/02/24 10:05:15;;;;;;;4.75;0.75;;;12.80;99.90;;;;;;5089228;28;20048;-81
2024/02/24 10:07:44;;;;;;;2.58;0.40;;;12.90;99.90;;;;;;5094516;28;20116;-81
2024/02/24 10:10:14;;;;;;;1.60;0.43;;;12.80;99.90;;;;;;5085305;28;20058;-78
2024/02/24 10:12:57;;;;;;;2.10;0.32;;;12.80;99.90;;;;;;5086615;28;20044;-83
2024/02/24 10:15:25;;;;;;;5.70;0.98;;;12.80;99.90;;;;;;5102006;27;20428;-82
2024/02/24 10:17:58;;;;;;;3.78;0.40;;;12.80;99.90;;;;;;5084719;28;20062;-82
2024/02/24 10:20:29;;;;;;;5.25;1.08;;;12.80;99.90;;;;;;5082110;28;20055;-83
2024/02/24 10:22:58;;;;;;;26.98;10.50;;;12.80;99.90;;;;;;5082625;28;20044;-79
2024/02/24 10:25:26;;;;;;;53.72;20.35;;;12.90;99.90;;;;;;5081991;28;20514;-80
2024/02/24 10:27:56;;;;;;;4.13;1.45;;;12.90;99.90;;;;;;5087283;28;20063;-83
2024/02/24 10:30:24;;;;;;;6.25;2.67;;;12.90;99.90;;;;;;5082193;28;20067;-80
2024/02/24 10:32:56;;;;;;;30.40;7.82;;;12.90;99.90;;;;;;5085852;28;20052;-80
2024/02/24 10:35:25;;;;;;;5.97;1.95;;;13.00;99.90;;;;;;5100412;28;20054;-78
2024/02/24 10:37:56;;;;;;;2.00;0.63;;;13.00;99.90;;;;;;5083469;28;20052;-82
2024/02/24 10:40:45;;;;;;;1.10;0.32;;;12.90;99.90;;;;;;5102253;28;20037;-78
2024/02/24 10:43:16;;;;;;;4.43;1.13;;;12.90;99.90;;;;;;5083496;28;20075;-80
2024/02/24 10:45:44;;;;;;;19.60;6.20;;;12.90;99.90;;;;;;5085798;28;20068;-78
2024/02/24 10:48:13;;;;;;;37.92;13.40;;;13.00;99.90;;;;;;5087375;28;20061;-80
2024/02/24 10:50:45;;;;;;;8.60;2.70;;;13.00;99.90;;;;;;5085004;28;20139;-79
2024/02/24 10:53:16;;;;;;;5.00;1.63;;;13.00;99.90;;;;;;5084046;28;20040;-80
2024/02/24 10:55:45;;;;;;;2.22;0.52;;;13.00;99.90;;;;;;5086902;28;20104;-79
2024/02/24 10:58:20;;;;;;;2.70;0.52;;;13.10;99.90;;;;;;5092679;28;20051;-79
2024/02/24 11:00:53;;;;;;;1.75;0.57;;;13.10;99.90;;;;;;5081263;28;20542;-82
2024/02/24 11:03:22;;;;;;;6.72;0.38;;;13.10;99.90;;;;;;5083276;28;20047;-79
2024/02/24 11:05:52;;;;;;;3.13;0.20;;;13.10;99.90;;;;;;5081041;28;20526;-79
2024/02/24 11:08:43;;;;;;;1.45;0.38;;;13.10;99.90;;;;;;5105508;28;20554;-81
2024/02/24 11:11:12;;;;;;;2.55;0.73;;;13.10;99.90;;;;;;5100124;28;20507;-82
2024/02/24 11:13:46;;;;;;;2.17;0.43;;;13.10;99.90;;;;;;5088695;28;20117;-80
2024/02/24 11:16:35;;;;;;;12.15;2.70;;;13.00;99.90;;;;;;5099717;28;20052;-80
2024/02/24 11:19:10;;;;;;;19.50;5.65;;;13.10;99.90;;;;;;5085102;28;20504;-79
2024/02/24 11:22:01;;;;;;;11.45;3.42;;;13.10;99.90;;;;;;5086579;28;20067;-80
2024/02/24 11:24:34;;;;;;;3.28;0.90;;;13.10;99.90;;;;;;5089900;28;20137;-79
2024/02/24 11:27:03;;;;;;;6.85;2.05;;;13.20;99.90;;;;;;5101932;28;20098;-84
2024/02/24 11:29:36;;;;;;;5.75;1.20;;;13.30;99.90;;;;;;5087824;28;20173;-79
2024/02/24 11:32:05;;;;;;;4.22;1.92;;;13.20;99.90;;;;;;5103888;28;20063;-78
2024/02/24 11:34:35;;;;;;;14.80;7.32;;;13.20;99.90;;;;;;5085231;28;20061;-79
2024/02/24 11:37:04;;;;;;;3.70;1.02;;;13.30;99.90;;;;;;5084665;28;20050;-83
2024/02/24 11:39:34;;;;;;;0.82;0.40;;;13.30;99.90;;;;;;5082343;28;20135;-78
2024/02/24 11:42:02;;;;;;;1.63;0.40;;;13.30;99.90;;;;;;5093962;27;20056;-81
2024/02/24 11:44:31;;;;;;;1.38;0.43;;;13.30;99.90;;;;;;5102019;28;20072;-79
2024/02/24 11:47:01;;;;;;;2.95;0.38;;;13.30;99.90;;;;;;5090830;28;20040;-79
2024/02/24 11:49:29;;;;;;;1.52;0.20;;;13.30;99.90;;;;;;5085187;28;20085;-81
2024/02/24 11:51:58;;;;;;;3.22;0.43;;;13.30;99.90;;;;;;5084432;28;20047;-79
2024/02/24 11:54:27;;;;;;;1.77;0.30;;;13.40;99.90;;;;;;5100065;28;20499;-77
2024/02/24 11:56:59;;;;;;;1.83;0.40;;;13.30;99.90;;;;;;5086186;28;20372;-77
2024/02/24 11:59:30;;;;;;;2.47;0.20;;;13.30;99.90;;;;;;5086458;28;20102;-81
2024/02/24 12:01:58;;;;;;;3.92;0.55;;;13.40;99.90;;;;;;5105053;27;20049;-82
2024/02/24 12:04:28;;;;;;;4.20;0.85;;;13.40;99.90;;;;;;5082536;28;20040;-82
2024/02/24 12:06:58;;;;;;;1.73;0.20;;;13.30;99.90;;;;;;5084195;28;20148;-80
2024/02/24 12:09:27;;;;;;;1.80;0.30;;;13.40;99.90;;;;;;5092105;28;20113;-80
2024/02/24 12:11:56;;;;;;;1.23;0.30;;;13.40;99.90;;;;;;5100826;28;20040;-79
2024/02/24 12:14:28;;;;;;;18.70;6.38;;;13.50;99.90;;;;;;5083639;28;20040;-79
2024/02/24 12:16:57;;;;;;;5.40;0.93;;;13.40;99.90;;;;;;5103288;27;20131;-78
2024/02/24 12:19:27;;;;;;;4.18;0.30;;;13.50;99.90;;;;;;5090293;28;20060;-79
2024/02/24 12:21:58;;;;;;;2.22;0.30;;;13.50;99.90;;;;;;5085352;28;20054;-78
2024/02/24 12:24:28;;;;;;;3.10;0.50;;;13.50;99.90;;;;;;5081798;28;20040;-77
2024/02/24 12:27:01;;;;;;;1.35;0.35;;;13.40;99.90;;;;;;5081820;28;20067;-79
2024/02/24 12:29:30;;;;;;;;;;;13.50;99.90;;;;;;5100918;28;20063;-82
2024/02/24 12:31:59;;;;;;;3.00;0.68;;;13.50;99.90;;;;;;5091075;28;19926;-80
2024/02/24 12:34:27;;;;;;;1.38;0.40;;;13.40;99.90;;;;;;5091073;28;20078;-79
2024/02/24 12:36:56;;;;;;;2.40;0.38;;;13.40;99.90;;;;;;5082658;28;20048;-81
2024/02/24 12:39:29;;;;;;;3.00;0.20;;;13.40;99.90;;;;;;5083959;28;20044;-80
2024/02/24 12:41:58;;;;;;;3.63;0.40;;;13.30;99.90;;;;;;5083372;28;20971;-80
2024/02/24 12:44:26;;;;;;;2.97;0.60;;;13.30;99.90;;;;;;5080189;28;20487;-80
2024/02/24 12:46:55;;;;;;;1.52;0.30;;;13.30;99.90;;;;;;5081175;28;20044;-78
2024/02/24 12:49:23;;;;;;;8.95;0.63;;;13.40;99.90;;;;;;5083288;28;20040;-80
2024/02/24 12:51:52;;;;;;;3.55;0.52;;;13.50;99.90;;;;;;5085028;28;20499;-79
2024/02/24 12:54:20;;;;;;;3.03;0.25;;;13.50;99.90;;;;;;5086914;28;20402;-83
2024/02/24 12:56:50;;;;;;;1.33;0.20;;;13.50;99.90;;;;;;5099184;27;20406;-77
2024/02/24 12:59:21;;;;;;;2.72;0.10;;;13.40;99.90;;;;;;5101609;27;20052;-78